Time;durP1;ratioP1;P1;durP2;ratioP2;P2;SDS_P1;SDS_P2;PMS_P1;PMS_P2;Temp;Humidity;BMP_temperature;BMP_pressure;BME280_temperature;BME280_humidity;BME280_pressure;Samples;Min_cycle;Max_cycle;Signal;HPM_P1;HPM_P2
2023/04/13 00:02:04;;;;;;;4.70;1.67;;;;;;;6.25;100.00;97636.72;5050147;28;20028;-79
2023/04/13 00:04:30;;;;;;;4.10;0.98;;;;;;;6.42;100.00;97671.22;5051163;28;20028;-79
2023/04/13 00:06:57;;;;;;;1.30;0.50;;;;;;;6.49;100.00;97675.56;5054925;28;20519;-78
2023/04/13 00:09:24;;;;;;;1.10;0.50;;;;;;;6.53;100.00;97684.91;5052764;28;20103;-78
2023/04/13 00:11:50;;;;;;;2.75;0.60;;;;;;;6.32;100.00;97652.84;5054562;28;20044;-78
2023/04/13 00:14:17;;;;;;;2.75;0.30;;;;;;;6.50;100.00;97676.44;5051880;28;20021;-77
2023/04/13 00:16:43;;;;;;;2.75;0.63;;;;;;;6.36;100.00;97662.94;5051958;28;20112;-77
2023/04/13 00:19:09;;;;;;;3.17;0.40;;;;;;;6.23;100.00;97638.75;5052604;28;20020;-77
2023/04/13 00:21:34;;;;;;;2.42;0.60;;;;;;;6.31;100.00;97664.59;5052604;28;20540;-77
2023/04/13 00:23:59;;;;;;;1.42;0.50;;;;;;;6.26;100.00;97659.88;5040042;28;20104;-78
2023/04/13 00:26:24;;;;;;;3.50;0.57;;;;;;;6.25;100.00;97673.47;5054333;28;20022;-78
2023/04/13 00:28:50;;;;;;;1.63;0.77;;;;;;;6.24;100.00;97683.41;5060395;28;20036;-77
2023/04/13 00:31:15;;;;;;;3.05;0.70;;;;;;;6.18;100.00;97672.63;5068569;28;20043;-79
2023/04/13 00:33:41;;;;;;;0.95;0.60;;;;;;;6.24;100.00;97693.31;5053499;28;20029;-78
2023/04/13 00:36:07;;;;;;;6.55;2.72;;;;;;;6.08;100.00;97678.41;5049507;28;20025;-79
2023/04/13 00:38:32;;;;;;;0.57;0.57;;;;;;;6.21;100.00;97704.44;5063988;28;20089;-80
2023/04/13 00:40:57;;;;;;;2.63;0.60;;;;;;;6.26;100.00;97697.47;5075266;28;20088;-79
2023/04/13 00:43:24;;;;;;;1.75;0.43;;;;;;;6.31;100.00;97684.25;5073898;28;20039;-80
2023/04/13 00:45:49;;;;;;;1.10;0.50;;;;;;;6.39;100.00;97693.94;5064063;28;20098;-78
2023/04/13 00:48:15;;;;;;;0.63;0.30;;;;;;;6.36;100.00;97673.69;5052058;28;20017;-78
2023/04/13 00:50:41;;;;;;;2.83;0.30;;;;;;;6.39;100.00;97687.75;5050904;28;20033;-78
2023/04/13 00:53:09;;;;;;;0.45;0.30;;;;;;;6.41;100.00;97686.53;5059361;28;20025;-78
2023/04/13 00:55:38;;;;;;;0.55;0.30;;;;;;;6.32;100.00;97661.72;5055694;28;20029;-78
2023/04/13 00:58:03;;;;;;;2.42;0.30;;;;;;;6.20;100.00;97652.59;5057813;28;20051;-78
2023/04/13 01:00:28;;;;;;;4.60;0.40;;;;;;;6.28;100.00;97673.91;5053750;28;20534;-77
2023/04/13 01:02:54;;;;;;;0.40;0.20;;;;;;;6.27;100.00;97660.69;5054929;28;20044;-79
2023/04/13 01:05:20;;;;;;;0.70;0.40;;;;;;;6.30;100.00;97682.59;5050246;28;20552;-78
2023/04/13 01:08:07;;;;;;;0.50;0.35;;;;;;;6.41;100.00;97683.84;5055462;28;20064;-77
2023/04/13 01:10:48;;;;;;;0.57;0.17;;;;;;;6.34;100.00;97656.13;5059230;28;20082;-77
2023/04/13 01:13:35;;;;;;;1.38;0.30;;;;;;;6.39;100.00;97674.31;5055722;28;20051;-77
2023/04/13 01:16:07;;;;;;;1.23;0.30;;;;;;;6.31;100.00;97678.88;5055689;28;20387;-78
2023/04/13 01:18:37;;;;;;;1.40;0.30;;;;;;;6.29;100.00;97683.63;5053414;28;20037;-76
2023/04/13 01:21:04;;;;;;;0.73;0.20;;;;;;;6.02;100.00;97653.19;5050662;28;20044;-77
2023/04/13 01:23:49;;;;;;;0.32;0.10;;;;;;;6.02;100.00;97679.19;5048102;28;20143;-77
2023/04/13 01:26:16;;;;;;;0.38;0.22;;;;;;;5.96;100.00;97686.22;5046003;28;20021;-79
2023/04/13 01:28:41;;;;;;;1.48;0.30;;;;;;;5.84;100.00;97675.22;5051411;28;20483;-78
2023/04/13 01:31:10;;;;;;;0.50;0.30;;;;;;;6.08;100.00;97695.34;5053288;28;20025;-78
2023/04/13 01:33:39;;;;;;;3.60;0.38;;;;;;;6.17;100.00;97682.56;5057460;28;20046;-77
2023/04/13 01:36:08;;;;;;;0.73;0.32;;;;;;;6.24;100.00;97675.34;5057323;28;20055;-78
2023/04/13 01:38:33;;;;;;;1.00;0.38;;;;;;;6.17;100.00;97646.81;5054065;28;20086;-79
2023/04/13 01:40:58;;;;;;;0.38;0.25;;;;;;;6.34;100.00;97659.66;5056111;28;20036;-78
2023/04/13 01:43:26;;;;;;;1.05;0.20;;;;;;;6.36;100.00;97664.81;5053930;28;20029;-79
2023/04/13 01:46:08;;;;;;;0.68;0.28;;;;;;;6.43;100.00;97680.97;5047766;28;20041;-77
2023/04/13 01:48:44;;;;;;;3.03;0.40;;;;;;;6.23;100.00;97651.38;5050521;28;20434;-76
2023/04/13 01:51:17;;;;;;;1.50;0.40;;;;;;;6.26;100.00;97656.31;5051144;28;20112;-77
2023/04/13 01:53:46;;;;;;;0.43;0.30;;;;;;;6.38;100.00;97664.63;5046186;28;20025;-76
2023/04/13 01:56:14;;;;;;;0.50;0.28;;;;;;;6.42;100.00;97665.84;5051776;28;20023;-78
2023/04/13 01:58:40;;;;;;;1.55;0.40;;;;;;;6.36;100.00;97668.31;5056419;28;20029;-79
2023/04/13 02:01:06;;;;;;;0.28;0.15;;;;;;;6.29;100.00;97655.94;5054743;28;20214;-78
2023/04/13 02:03:33;;;;;;;0.70;0.30;;;;;;;6.43;100.00;97671.03;5053225;28;20029;-78
2023/04/13 02:06:00;;;;;;;2.15;0.80;;;;;;;6.38;100.00;97667.31;5051358;28;20036;-78
2023/04/13 02:08:25;;;;;;;2.40;0.40;;;;;;;6.38;100.00;97656.56;5055964;28;20066;-78
2023/04/13 02:10:51;;;;;;;1.00;0.30;;;;;;;6.42;100.00;97655.09;5053320;28;20047;-77
2023/04/13 02:13:16;;;;;;;0.68;0.30;;;;;;;6.43;100.00;97662.16;5052674;28;20038;-76
2023/04/13 02:15:43;;;;;;;1.25;0.22;;;;;;;6.34;100.00;97650.75;5053103;28;20433;-79
2023/04/13 02:18:10;;;;;;;0.68;0.20;;;;;;;6.33;100.00;97644.56;5056070;28;20603;-77
2023/04/13 02:20:43;;;;;;;0.32;0.28;;;;;;;6.29;100.00;97648.72;5057527;28;20029;-77
2023/04/13 02:23:10;;;;;;;0.30;0.13;;;;;;;6.40;100.00;97659.88;5053181;28;20020;-77
2023/04/13 02:25:36;;;;;;;0.35;0.10;;;;;;;6.18;100.00;97637.72;5053527;28;20029;-77
2023/04/13 02:28:02;;;;;;;0.90;0.35;;;;;;;6.34;100.00;97675.78;5058080;28;20036;-77
2023/04/13 02:30:28;;;;;;;1.55;0.50;;;;;;;6.30;100.00;97669.16;5052051;28;20372;-77
2023/04/13 02:32:54;;;;;;;0.40;0.38;;;;;;;6.20;100.00;97663.34;5050475;28;20029;-77
2023/04/13 02:35:20;;;;;;;0.85;0.43;;;;;;;6.13;100.00;97659.81;5052418;28;20028;-77
2023/04/13 02:37:45;;;;;;;0.60;0.30;;;;;;;6.08;100.00;97652.38;5047707;28;20033;-77
2023/04/13 02:40:11;;;;;;;2.92;0.65;;;;;;;6.22;100.00;97671.22;5045678;28;20116;-77
2023/04/13 02:42:40;;;;;;;1.13;0.45;;;;;;;6.22;100.00;97666.66;5048752;28;20052;-77
2023/04/13 02:45:07;;;;;;;0.95;0.35;;;;;;;6.17;100.00;97674.50;5047865;28;20020;-77
2023/04/13 02:47:33;;;;;;;0.40;0.40;;;;;;;6.05;100.00;97655.47;5051048;28;20104;-76
2023/04/13 02:50:02;;;;;;;2.13;0.22;;;;;;;6.01;100.00;97651.53;5042290;28;20104;-77
2023/04/13 02:52:28;;;;;;;1.98;0.57;;;;;;;5.87;100.00;97625.66;5043841;28;20029;-77
2023/04/13 02:54:53;;;;;;;0.93;0.30;;;;;;;5.81;100.00;97643.38;5050816;28;20120;-79
2023/04/13 02:57:20;;;;;;;3.70;0.43;;;;;;;5.90;100.00;97660.16;5045046;28;20028;-78
2023/04/13 02:59:45;;;;;;;2.25;0.40;;;;;;;5.97;100.00;97670.94;5035764;28;20082;-78
2023/04/13 03:02:12;;;;;;;1.80;0.20;;;;;;;5.92;100.00;97679.53;5047655;28;20110;-78
2023/04/13 03:04:37;;;;;;;0.93;0.40;;;;;;;5.60;100.00;97636.28;5057456;28;20039;-86
2023/04/13 03:07:07;;;;;;;0.43;0.25;;;;;;;5.67;100.00;97668.53;5063013;28;20479;-81
2023/04/13 03:09:33;;;;;;;2.42;0.40;;;;;;;5.51;100.00;97656.28;5054950;28;20112;-78
2023/04/13 03:11:58;;;;;;;1.55;0.20;;;;;;;5.45;100.00;97663.28;5054353;28;20059;-81
2023/04/13 03:14:28;;;;;;;1.77;0.30;;;;;;;5.42;100.00;97660.13;5059965;28;20514;-83
2023/04/13 03:16:54;;;;;;;1.70;0.30;;;;;;;5.54;100.00;97682.69;5059681;28;20063;-80
2023/04/13 03:19:20;;;;;;;2.10;0.43;;;;;;;5.22;100.00;97627.88;5060851;28;20021;-83
2023/04/13 03:21:46;;;;;;;1.48;0.40;;;;;;;5.39;100.00;97639.09;5057500;28;20024;-78
2023/04/13 03:24:11;;;;;;;4.45;0.77;;;;;;;5.37;100.00;97652.72;5052591;28;20115;-80
2023/04/13 03:26:37;;;;;;;0.93;0.30;;;;;;;5.30;100.00;97640.28;5058859;28;20032;-77
2023/04/13 03:29:03;;;;;;;2.00;0.45;;;;;;;5.44;100.00;97666.97;5060774;28;20089;-76
2023/04/13 03:31:29;;;;;;;1.13;0.30;;;;;;;5.51;100.00;97687.66;5059516;28;20018;-77
2023/04/13 03:33:56;;;;;;;0.47;0.30;;;;;;;5.18;100.00;97637.31;5058777;28;20108;-77
2023/04/13 03:36:22;;;;;;;0.95;0.30;;;;;;;5.38;100.00;97683.84;5061967;28;20044;-77
2023/04/13 03:38:47;;;;;;;0.40;0.22;;;;;;;5.38;100.00;97693.75;5059159;28;20025;-78
2023/04/13 03:41:14;;;;;;;2.00;0.52;;;;;;;5.25;100.00;97673.06;5060686;28;20107;-79
2023/04/13 03:43:40;;;;;;;2.08;0.40;;;;;;;5.40;100.00;97694.41;5056659;28;20032;-76
2023/04/13 03:46:06;;;;;;;2.08;0.40;;;;;;;5.41;100.00;97682.63;5056098;28;20025;-78
2023/04/13 03:48:32;;;;;;;1.63;0.35;;;;;;;5.52;100.00;97706.22;5057210;28;20041;-79
2023/04/13 03:50:57;;;;;;;1.40;0.40;;;;;;;5.48;100.00;97683.50;5054734;28;20021;-78
2023/04/13 03:53:22;;;;;;;2.90;0.50;;;;;;;5.59;100.00;97714.31;5060521;28;20017;-78
2023/04/13 03:55:48;;;;;;;2.35;0.55;;;;;;;5.54;100.00;97703.34;5060719;28;20403;-77
2023/04/13 03:58:13;;;;;;;2.22;0.50;;;;;;;5.59;100.00;97711.63;5072017;28;20036;-85
2023/04/13 04:00:38;;;;;;;2.40;0.55;;;;;;;5.61;100.00;97706.91;5064396;28;20067;-74
2023/04/13 04:03:03;;;;;;;2.20;0.75;;;;;;;5.64;100.00;97703.81;5054111;28;20017;-75
2023/04/13 04:05:29;;;;;;;0.60;0.50;;;;;;;5.57;100.00;97703.75;5052902;28;20509;-75
2023/04/13 04:07:54;;;;;;;1.42;0.47;;;;;;;5.51;100.00;97693.00;5071698;28;20016;-79
2023/04/13 04:10:20;;;;;;;1.20;0.32;;;;;;;5.62;100.00;97705.84;5073975;28;20025;-84
2023/04/13 04:12:45;;;;;;;2.08;0.73;;;;;;;5.66;100.00;97713.31;5072709;28;20033;-79
2023/04/13 04:15:10;;;;;;;3.63;0.60;;;;;;;5.62;100.00;97695.13;5062073;28;20017;-82
2023/04/13 04:17:35;;;;;;;4.03;1.02;;;;;;;5.79;100.00;97706.34;5063150;28;20047;-78
2023/04/13 04:20:02;;;;;;;4.63;0.60;;;;;;;5.98;100.00;97718.25;5055463;28;20028;-78
2023/04/13 04:23:00;;;;;;;2.08;0.50;;;;;;;6.03;100.00;97718.47;5065202;28;20025;-79
2023/04/13 04:28:40;;;;;;;0.55;0.30;;;;;;;6.01;100.00;97717.84;5031849;28;20397;-81
2023/04/13 04:31:09;;;;;;;4.88;0.32;;;;;;;6.11;100.00;97724.47;5054133;28;20060;-83
2023/04/13 04:33:37;;;;;;;4.03;0.50;;;;;;;5.74;100.00;97666.69;5048832;28;20020;-86
2023/04/13 04:36:08;;;;;;;3.03;0.57;;;;;;;6.17;100.00;97728.22;5054474;28;20028;-78
2023/04/13 04:38:34;;;;;;;3.97;0.43;;;;;;;6.00;100.00;97700.91;5054493;28;20060;-78
2023/04/13 04:41:00;;;;;;;0.80;0.28;;;;;;;6.04;100.00;97720.09;5051020;28;20060;-77
2023/04/13 04:43:28;;;;;;;1.23;0.40;;;;;;;6.12;100.00;97725.28;5053082;28;20020;-80
2023/04/13 04:45:56;;;;;;;1.75;0.50;;;;;;;6.04;100.00;97715.56;5058107;28;20426;-80
2023/04/13 04:48:23;;;;;;;2.20;1.33;;;;;;;6.15;100.00;97739.13;5052593;28;20112;-78
2023/04/13 04:50:51;;;;;;;1.33;0.40;;;;;;;6.07;100.00;97725.06;5050417;28;20449;-79
2023/04/13 04:53:16;;;;;;;1.35;0.50;;;;;;;6.06;100.00;97718.88;5054506;28;20034;-80
2023/04/13 04:55:42;;;;;;;3.40;0.50;;;;;;;6.00;100.00;97710.78;5052726;28;20643;-79
2023/04/13 04:58:07;;;;;;;1.67;0.50;;;;;;;6.15;100.00;97724.88;5072198;28;20163;-80
2023/04/13 05:00:34;;;;;;;3.28;0.63;;;;;;;5.95;100.00;97698.00;5051119;28;20171;-77
2023/04/13 05:03:00;;;;;;;0.73;0.43;;;;;;;6.08;100.00;97722.19;5052599;28;20111;-76
2023/04/13 05:05:26;;;;;;;2.67;0.50;;;;;;;6.16;100.00;97740.00;5042377;28;20425;-77
2023/04/13 05:07:52;;;;;;;1.75;0.70;;;;;;;6.20;100.00;97735.03;5048845;28;20388;-75
2023/04/13 05:10:17;;;;;;;0.70;0.50;;;;;;;6.08;100.00;97724.06;5051048;28;20028;-77
2023/04/13 05:12:42;;;;;;;1.85;0.60;;;;;;;6.04;100.00;97718.25;5051548;28;20592;-78
2023/04/13 05:15:08;;;;;;;1.80;0.70;;;;;;;6.08;100.00;97716.81;5053056;28;20028;-79
2023/04/13 05:17:35;;;;;;;4.25;1.15;;;;;;;6.04;100.00;97709.38;5058553;28;20033;-83
2023/04/13 05:20:02;;;;;;;2.47;0.80;;;;;;;6.08;100.00;97710.63;5045532;28;20059;-76
2023/04/13 05:22:27;;;;;;;3.90;0.68;;;;;;;6.16;100.00;97718.50;5051583;28;20028;-74
2023/04/13 05:24:52;;;;;;;3.75;0.60;;;;;;;6.04;100.00;97701.31;5049327;28;20041;-75
2023/04/13 05:27:18;;;;;;;2.10;0.68;;;;;;;6.17;100.00;97712.09;5051081;28;20025;-75
2023/04/13 05:29:43;;;;;;;3.30;0.70;;;;;;;6.16;100.00;97686.28;5048563;28;20027;-78
2023/04/13 05:32:09;;;;;;;2.72;0.55;;;;;;;6.35;100.00;97717.72;5049543;28;20545;-72
2023/04/13 05:34:36;;;;;;;5.18;0.70;;;;;;;6.40;100.00;97730.56;5050113;28;20029;-77
2023/04/13 05:37:02;;;;;;;2.03;0.80;;;;;;;6.51;100.00;97742.56;5050982;28;20093;-74
2023/04/13 05:39:28;;;;;;;2.08;1.10;;;;;;;6.42;100.00;97723.13;5049223;28;20526;-75
2023/04/13 05:41:53;;;;;;;2.15;0.80;;;;;;;6.55;100.00;97725.00;5067811;28;20073;-72
2023/04/13 05:44:18;;;;;;;6.57;1.35;;;;;;;6.37;100.00;97690.66;5053697;28;20083;-76
2023/04/13 05:46:44;;;;;;;1.65;0.77;;;;;;;6.67;100.00;97757.47;5053424;28;20031;-76
2023/04/13 05:49:09;;;;;;;5.47;0.75;;;;;;;6.73;100.00;97749.44;5057348;28;20071;-80
2023/04/13 05:51:35;;;;;;;6.70;0.82;;;;;;;6.77;100.00;97763.28;5052012;28;20067;-75
2023/04/13 05:54:01;;;;;;;2.95;0.77;;;;;;;6.69;100.00;97767.00;5053442;28;20029;-80
2023/04/13 05:56:28;;;;;;;2.42;0.80;;;;;;;6.53;100.00;97757.44;5057828;28;20029;-84
2023/04/13 05:58:54;;;;;;;2.90;1.00;;;;;;;6.35;100.00;97738.38;5048490;28;20422;-83
2023/04/13 06:01:19;;;;;;;3.22;1.08;;;;;;;6.36;100.00;97746.22;5049509;28;20078;-83
2023/04/13 06:03:45;;;;;;;4.53;0.70;;;;;;;6.62;100.00;97778.75;5061217;28;20049;-91
2023/04/13 06:06:16;;;;;;;4.47;0.95;;;;;;;6.15;100.00;97708.78;5070948;28;20029;-89
2023/04/13 06:08:42;;;;;;;2.90;1.10;;;;;;;6.33;100.00;97719.78;5056841;28;20027;-81
2023/04/13 06:11:09;;;;;;;5.22;1.20;;;;;;;6.56;100.00;97750.84;5053950;28;20021;-84
2023/04/13 06:13:35;;;;;;;2.38;0.95;;;;;;;6.72;100.00;97769.25;5055742;28;20033;-83
2023/04/13 06:16:01;;;;;;;3.58;1.08;;;;;;;6.68;100.00;97765.34;5052290;28;20025;-82
2023/04/13 06:18:27;;;;;;;4.18;1.02;;;;;;;6.61;100.00;97751.06;5051304;28;20045;-80
2023/04/13 06:20:52;;;;;;;3.75;0.73;;;;;;;6.81;100.00;97769.88;5050659;28;20032;-83
2023/04/13 06:23:18;;;;;;;3.63;1.25;;;;;;;6.63;100.00;97745.47;5054263;28;20017;-81
2023/04/13 06:25:43;;;;;;;2.83;0.98;;;;;;;6.94;100.00;97783.38;5057502;28;20033;-77
2023/04/13 06:28:09;;;;;;;3.22;0.70;;;;;;;6.96;100.00;97775.91;5054357;28;20085;-81
2023/04/13 06:30:36;;;;;;;6.72;0.98;;;;;;;6.94;100.00;97753.81;5056942;28;20515;-79
2023/04/13 06:33:01;;;;;;;3.08;0.93;;;;;;;7.10;100.00;97755.25;5059802;28;20051;-81
2023/04/13 06:35:28;;;;;;;1.55;0.70;;;;;;;7.02;100.00;97755.44;5052862;28;20021;-79
2023/04/13 06:37:53;;;;;;;2.00;0.60;;;;;;;7.13;100.00;97754.84;5054733;28;20521;-79
2023/04/13 06:40:19;;;;;;;2.50;0.70;;;;;;;7.34;100.00;97782.56;5058862;28;20033;-78
2023/04/13 06:42:45;;;;;;;5.07;1.00;;;;;;;7.37;100.00;97772.19;5058026;28;20063;-80
2023/04/13 06:45:11;;;;;;;4.65;0.55;;;;;;;7.31;100.00;97743.44;5050652;28;20037;-77
2023/04/13 06:47:41;;;;;;;6.05;1.20;;;;;;;7.50;100.00;97760.59;5048831;28;20040;-75
2023/04/13 06:50:08;;;;;;;5.35;1.00;;;;;;;7.54;100.00;97790.59;5054391;28;20028;-77
2023/04/13 06:52:35;;;;;;;1.75;0.70;;;;;;;7.51;100.00;97777.56;5056854;28;20487;-85
2023/04/13 06:55:01;;;;;;;7.18;1.38;;;;;;;7.71;100.00;97786.44;5062827;28;20028;-80
2023/04/13 06:57:27;;;;;;;2.70;0.85;;;;;;;7.85;100.00;97746.84;5060876;28;20029;-81
2023/04/13 06:59:52;;;;;;;3.55;0.95;;;;;;;8.31;100.00;97753.94;5064614;28;20029;-82
2023/04/13 07:02:17;;;;;;;7.72;1.17;;;;;;;8.41;100.00;97715.75;5061123;28;20244;-82
2023/04/13 07:04:43;;;;;;;5.38;0.65;;;;;;;8.91;100.00;97745.53;5059202;28;20141;-80
2023/04/13 07:07:08;;;;;;;4.22;0.70;;;;;;;9.42;100.00;97782.25;5061929;28;20088;-83
2023/04/13 07:09:34;;;;;;;4.90;1.55;;;;;;;9.39;100.00;97770.03;5062275;28;20056;-85
2023/04/13 07:12:03;;;;;;;8.00;1.10;;;;;;;9.51;100.00;97761.19;5056371;28;20051;-84
2023/04/13 07:14:39;;;;;;;5.45;1.13;;;;;;;9.47;100.00;97741.09;5063270;28;20020;-79
2023/04/13 07:17:05;;;;;;;2.72;0.55;;;;;;;9.70;100.00;97725.06;5057534;28;20040;-82
2023/04/13 07:19:32;;;;;;;6.03;1.25;;;;;;;9.56;100.00;97761.34;5063446;28;20029;-79
2023/04/13 07:21:58;;;;;;;4.60;0.52;;;;;;;9.35;100.00;97771.53;5055705;28;20032;-74
2023/04/13 07:24:26;;;;;;;2.45;0.65;;;;;;;8.73;100.00;97767.84;5054971;28;20017;-74
2023/04/13 07:26:52;;;;;;;4.68;0.80;;;;;;;8.82;100.00;97763.81;5051878;28;20029;-72
2023/04/13 07:29:17;;;;;;;2.00;0.60;;;;;;;9.23;100.00;97761.66;5049546;28;20025;-72
2023/04/13 07:31:43;;;;;;;5.32;0.90;;;;;;;9.70;100.00;97779.09;5049690;28;20029;-72
2023/04/13 07:34:08;;;;;;;4.55;0.90;;;;;;;11.09;100.00;97770.31;5057939;28;20029;-72
2023/04/13 07:36:34;;;;;;;5.78;0.68;;;;;;;12.20;100.00;97765.84;5057111;28;20039;-72
2023/04/13 07:39:00;;;;;;;5.88;1.00;;;;;;;11.25;100.00;97771.50;5048571;28;20338;-72
2023/04/13 07:41:25;;;;;;;2.97;0.80;;;;;;;10.36;100.00;97765.91;5055118;28;20054;-74
2023/04/13 07:43:51;;;;;;;3.72;0.70;;;;;;;10.42;100.00;97770.41;5056181;28;20627;-73
2023/04/13 07:46:16;;;;;;;2.53;0.75;;;;;;;10.51;100.00;97790.69;5050635;28;20033;-75
2023/04/13 07:48:42;;;;;;;2.83;0.88;;;;;;;10.60;100.00;97772.25;5048845;28;20021;-73
2023/04/13 07:51:16;;;;;;;5.93;0.85;;;;;;;10.14;100.00;97763.66;5052613;28;20054;-74
2023/04/13 07:53:41;;;;;;;8.75;1.20;;;;;;;9.71;100.00;97763.72;5050459;28;20025;-74
2023/04/13 07:56:07;;;;;;;7.25;1.02;;;;;;;9.37;100.00;97763.19;5047359;28;20033;-73
2023/04/13 07:58:32;;;;;;;2.85;0.70;;;;;;;9.44;100.00;97770.19;5054515;28;20025;-72
2023/04/13 08:00:57;;;;;;;4.18;1.48;;;;;;;9.26;100.00;97762.03;5062756;28;20025;-79
2023/04/13 08:03:24;;;;;;;10.85;1.27;;;;;;;9.30;100.00;97763.28;5051590;28;20045;-79
2023/04/13 08:05:50;;;;;;;3.58;0.75;;;;;;;9.04;100.00;97774.25;5057123;28;20055;-81
2023/04/13 08:08:16;;;;;;;8.43;1.00;;;;;;;8.76;100.00;97773.59;5058807;28;20542;-80
2023/04/13 08:10:41;;;;;;;1.55;0.60;;;;;;;8.75;100.00;97768.41;5059964;28;20025;-81
2023/04/13 08:13:06;;;;;;;6.05;0.93;;;;;;;8.74;100.00;97796.44;5059699;28;20021;-84
2023/04/13 08:15:32;;;;;;;4.82;1.02;;;;;;;8.80;100.00;97800.97;5071970;28;20025;-88
2023/04/13 08:17:58;;;;;;;5.35;1.10;;;;;;;8.70;100.00;97784.44;5064384;28;20040;-80
2023/04/13 08:20:24;;;;;;;3.45;0.70;;;;;;;8.99;100.00;97789.22;5060353;28;20021;-82
2023/04/13 08:22:49;;;;;;;3.83;0.80;;;;;;;9.06;100.00;97775.69;5058434;28;20168;-81
2023/04/13 08:25:16;;;;;;;8.80;1.15;;;;;;;9.22;100.00;97790.50;5063425;28;20017;-86
2023/04/13 08:27:41;;;;;;;4.10;0.82;;;;;;;8.97;100.00;97777.81;5058160;28;20021;-84
2023/04/13 08:30:08;;;;;;;5.70;0.90;;;;;;;8.78;100.00;97785.00;5061044;28;20032;-80
2023/04/13 08:32:34;;;;;;;10.30;1.15;;;;;;;8.94;100.00;97780.97;5057364;28;20211;-81
2023/04/13 08:35:05;;;;;;;7.38;0.88;;;;;;;9.14;100.00;97793.47;5053267;28;20044;-83
2023/04/13 08:37:32;;;;;;;2.60;0.90;;;;;;;8.85;100.00;97776.03;5061014;28;20029;-87
2023/04/13 08:39:59;;;;;;;5.88;0.93;;;;;;;9.59;100.00;97782.53;5060305;28;20021;-84
2023/04/13 08:42:26;;;;;;;2.88;0.88;;;;;;;10.59;100.00;97808.50;5060929;28;20032;-84
2023/04/13 08:44:56;;;;;;;5.78;0.82;;;;;;;10.49;100.00;97787.38;5059874;28;20071;-79
2023/04/13 08:47:24;;;;;;;5.63;0.80;;;;;;;10.39;100.00;97797.91;5056205;28;20020;-78
2023/04/13 08:49:50;;;;;;;4.88;0.80;;;;;;;10.43;100.00;97812.63;5059273;28;20639;-82
2023/04/13 08:52:16;;;;;;;6.78;0.77;;;;;;;10.93;100.00;97785.34;5056208;28;20044;-77
2023/04/13 08:54:42;;;;;;;1.80;0.60;;;;;;;11.78;100.00;97789.56;5057744;28;20033;-80
2023/04/13 08:57:10;;;;;;;2.95;0.75;;;;;;;12.43;100.00;97797.53;5058403;28;20021;-80
2023/04/13 08:59:40;;;;;;;6.67;0.83;;;;;;;12.40;100.00;97795.28;5057581;28;20494;-75
2023/04/13 09:02:07;;;;;;;5.50;1.17;;;;;;;10.96;100.00;97809.22;5056150;28;20349;-81
2023/04/13 09:04:36;;;;;;;7.80;0.95;;;;;;;10.38;100.00;97807.09;5051684;28;20083;-79
2023/04/13 09:07:03;;;;;;;5.88;0.80;;;;;;;10.10;100.00;97800.28;5059516;28;20056;-78
2023/04/13 09:09:31;;;;;;;7.97;0.85;;;;;;;9.82;100.00;97798.06;5051731;28;20021;-75
2023/04/13 09:11:57;;;;;;;5.28;0.90;;;;;;;9.98;100.00;97805.63;5051889;28;20043;-75
2023/04/13 09:14:23;;;;;;;4.95;0.80;;;;;;;9.99;100.00;97792.94;5049961;28;20035;-76
2023/04/13 09:16:48;;;;;;;4.32;1.08;;;;;;;10.07;100.00;97800.75;5048478;28;20025;-76
2023/04/13 09:19:14;;;;;;;4.88;1.20;;;;;;;9.93;100.00;97796.50;5050651;28;20028;-76
2023/04/13 09:21:41;;;;;;;3.53;0.80;;;;;;;9.61;100.00;97804.72;5066289;28;20025;-76
2023/04/13 09:24:07;;;;;;;5.70;1.45;;;;;;;9.29;100.00;97818.28;5044519;28;20118;-75
2023/04/13 09:26:44;;;;;;;4.18;0.70;;;;;;;9.47;100.00;97822.09;5053478;28;20040;-76
2023/04/13 09:29:13;;;;;;;7.20;0.95;;;;;;;9.41;100.00;97794.13;5053448;28;20383;-76
2023/04/13 09:31:39;;;;;;;9.82;1.33;;;;;;;9.51;100.00;97818.75;5059118;28;20024;-74
2023/04/13 09:34:08;;;;;;;3.17;0.50;;;;;;;9.53;100.00;97794.19;5057054;28;20021;-75
2023/04/13 09:36:34;;;;;;;5.03;1.00;;;;;;;9.39;100.00;97807.81;5055121;28;20028;-76
2023/04/13 09:39:00;;;;;;;3.80;1.05;;;;;;;9.59;100.00;97815.75;5049925;28;20032;-75
2023/04/13 09:41:36;;;;;;;4.75;0.80;;;;;;;9.62;100.00;97820.72;5046920;28;20108;-74
2023/04/13 09:44:19;;;;;;;4.30;0.73;;;;;;;9.74;100.00;97807.28;5045324;28;20574;-76
2023/04/13 09:46:55;;;;;;;5.82;0.90;;;;;;;9.59;100.00;97804.13;5049447;28;20025;-77
2023/04/13 09:49:21;;;;;;;2.38;0.68;;;;;;;9.67;100.00;97798.44;5052613;28;20017;-75
2023/04/13 09:51:46;;;;;;;9.27;1.40;;;;;;;9.96;100.00;97801.50;5042775;28;20024;-75
2023/04/13 09:54:12;;;;;;;3.15;1.00;;;;;;;10.07;100.00;97819.66;5044772;28;20029;-73
2023/04/13 09:56:51;;;;;;;8.35;1.15;;;;;;;10.08;100.00;97824.00;5047825;28;20119;-73
2023/04/13 09:59:17;;;;;;;5.82;0.70;;;;;;;9.90;100.00;97796.97;5048775;28;20096;-74
2023/04/13 10:01:44;;;;;;;5.45;0.75;;;;;;;9.94;100.00;97811.69;5042764;28;20029;-74
2023/04/13 10:04:09;;;;;;;3.75;0.82;;;;;;;9.95;100.00;97806.06;5045859;28;20101;-72
2023/04/13 10:06:39;;;;;;;4.15;0.65;;;;;;;10.07;100.00;97811.56;5052037;28;20035;-73
2023/04/13 10:09:06;;;;;;;4.97;0.85;;;;;;;10.69;100.00;97806.88;5046957;28;20424;-74
2023/04/13 10:11:37;;;;;;;5.85;0.90;;;;;;;11.01;100.00;97803.94;5045572;28;20509;-75
2023/04/13 10:14:08;;;;;;;3.17;0.65;;;;;;;10.87;100.00;97786.22;5059598;28;20056;-75
2023/04/13 10:17:11;;;;;;;4.28;1.10;;;;;;;11.32;100.00;97804.72;5044591;28;20028;-75
2023/04/13 10:19:42;;;;;;;4.97;1.02;;;;;;;11.75;100.00;97807.13;5047002;28;20036;-73
2023/04/13 10:22:08;;;;;;;7.13;0.88;;;;;;;11.93;100.00;97800.78;5046366;28;20017;-73
2023/04/13 10:24:35;;;;;;;5.18;0.60;;;;;;;11.58;100.00;97788.03;5054183;28;20029;-68
2023/04/13 10:27:14;;;;;;;9.07;0.90;;;;;;;11.32;100.00;97802.84;5031060;22;20034;-63
2023/04/13 10:29:39;;;;;;;6.45;0.85;;;;;;;11.41;100.00;97795.19;5014645;28;20032;-63
2023/04/13 10:32:05;;;;;;;3.75;0.52;;;;;;;11.06;100.00;97808.69;4994818;28;20089;-63
2023/04/13 10:34:36;;;;;;;3.95;0.80;;;;;;;10.75;100.00;97791.63;5022112;28;20061;-64
2023/04/13 10:37:06;;;;;;;4.60;1.40;;;;;;;10.97;100.00;97791.91;4987399;28;20050;-63
2023/04/13 10:39:33;;;;;;;5.72;1.30;;;;;;;10.71;100.00;97793.94;5013232;28;20049;-63
2023/04/13 10:42:02;;;;;;;8.00;2.33;;;;;;;10.94;100.00;97787.78;4986815;28;20054;-63
2023/04/13 10:44:40;;;;;;;5.30;1.33;;;;;;;10.70;100.00;97788.78;4985728;28;20030;-63
2023/04/13 10:47:07;;;;;;;10.10;1.20;;;;;;;10.38;100.00;97794.38;4986129;28;20049;-63
2023/04/13 10:49:32;;;;;;;8.20;1.02;;;;;;;10.28;100.00;97802.19;4985190;28;20026;-64
2023/04/13 10:51:58;;;;;;;5.20;1.08;;;;;;;10.36;100.00;97793.78;4988190;28;20544;-63
2023/04/13 10:54:26;;;;;;;1.83;0.80;;;;;;;10.57;100.00;97806.00;5006412;28;20129;-64
2023/04/13 10:57:01;;;;;;;5.25;1.20;;;;;;;10.38;100.00;97807.91;4985510;28;20033;-63
2023/04/13 10:59:39;;;;;;;8.90;1.00;;;;;;;10.12;100.00;97803.59;4985531;28;20451;-63
2023/04/13 11:02:09;;;;;;;5.22;0.93;;;;;;;10.64;100.00;97809.44;4987591;28;20089;-63
2023/04/13 11:04:40;;;;;;;6.25;1.17;;;;;;;10.67;100.00;97800.06;4984261;28;20037;-66
2023/04/13 11:07:06;;;;;;;5.63;1.27;;;;;;;10.92;100.00;97802.59;4989696;28;20030;-64
2023/04/13 11:09:34;;;;;;;7.93;1.20;;;;;;;11.12;100.00;97800.44;4989844;28;20105;-63
2023/04/13 11:11:59;;;;;;;4.40;0.63;;;;;;;11.25;100.00;97804.00;4987262;28;20123;-63
2023/04/13 11:14:25;;;;;;;2.65;0.60;;;;;;;10.90;100.00;97812.84;5005765;28;20119;-63
2023/04/13 11:16:50;;;;;;;2.35;0.55;;;;;;;10.63;100.00;97809.66;4990252;28;20052;-64
2023/04/13 11:19:16;;;;;;;5.35;0.68;;;;;;;10.44;100.00;97811.56;4990460;28;20113;-63
2023/04/13 11:21:43;;;;;;;4.72;1.23;;;;;;;10.41;100.00;97812.84;4987198;28;20060;-63
2023/04/13 11:24:09;;;;;;;5.68;0.68;;;;;;;10.26;100.00;97815.91;4990988;28;20038;-63
2023/04/13 11:26:39;;;;;;;2.58;0.40;;;;;;;10.38;100.00;97824.13;4993803;28;20374;-65
2023/04/13 11:29:05;;;;;;;3.97;0.50;;;;;;;11.25;100.00;97815.66;4987965;28;20053;-61
2023/04/13 11:31:36;;;;;;;3.78;0.32;;;;;;;12.78;100.00;97801.19;4998323;28;20082;-61
2023/04/13 11:34:04;;;;;;;0.40;0.17;;;;;;;14.81;85.21;97796.44;5000543;28;20024;-61
2023/04/13 11:36:32;;;;;;;1.30;0.30;;;;;;;15.02;73.45;97795.56;4991227;28;20031;-62